createdAt,value
2024-01-21T00:00:01.601Z,101525.28
2024-01-21T00:00:59.530Z,101513.97
2024-01-21T00:01:57.668Z,101521.69
2024-01-21T00:02:55.616Z,101517.50
2024-01-21T00:03:53.549Z,101523.66
2024-01-21T00:04:51.537Z,101527.47
2024-01-21T00:05:49.764Z,101532.31
2024-01-21T00:06:47.774Z,101537.25
2024-01-21T00:07:47.161Z,101529.06
2024-01-21T00:08:46.399Z,101534.13
2024-01-21T00:09:44.361Z,101536.94
2024-01-21T00:10:42.217Z,101534.13
2024-01-21T00:11:40.806Z,101536.06
2024-01-21T00:12:39.582Z,101531.44
2024-01-21T00:13:38.161Z,101528.91
2024-01-21T00:14:38.026Z,101534.66
2024-01-21T00:15:36.057Z,101531.78
2024-01-21T00:16:34.482Z,101539.94
2024-01-21T00:17:32.506Z,101531.13
2024-01-21T00:18:30.097Z,101536.22
2024-01-21T00:19:27.803Z,101532.81
2024-01-21T00:20:25.241Z,101538.03
2024-01-21T00:21:22.917Z,101535.41
2024-01-21T00:22:20.399Z,101530.16
2024-01-21T00:23:18.429Z,101533.06
2024-01-21T00:24:16.032Z,101531.28
2024-01-21T00:25:13.640Z,101537.56
2024-01-21T00:26:11.201Z,101540.06
2024-01-21T00:27:08.682Z,101538.22
2024-01-21T00:28:06.338Z,101533.03
2024-01-21T00:29:04.292Z,101539.41
2024-01-21T00:30:04.229Z,101541.06
2024-01-21T00:31:04.741Z,101537.66
2024-01-21T00:32:02.814Z,101535.78
2024-01-21T00:33:00.277Z,101533.44
2024-01-21T00:33:57.760Z,101539.25
2024-01-21T00:34:55.950Z,101537.56
2024-01-21T00:35:53.667Z,101539.31
2024-01-21T00:36:51.599Z,101547.31
2024-01-21T00:37:49.032Z,101544.63
2024-01-21T00:38:46.752Z,101542.03
2024-01-21T00:39:44.329Z,101547.72
2024-01-21T00:40:42.506Z,101535.97
2024-01-21T00:41:42.774Z,101534.47
2024-01-21T00:42:42.192Z,101535.22
2024-01-21T00:43:39.697Z,101535.34
2024-01-21T00:44:38.726Z,101535.16
2024-01-21T00:45:36.377Z,101541.34
2024-01-21T00:46:34.020Z,101543.09
2024-01-21T00:47:31.990Z,101543.16
2024-01-21T00:48:29.728Z,101545.09
2024-01-21T00:49:27.177Z,101538.72
2024-01-21T00:50:24.846Z,101543.16
2024-01-21T00:51:25.032Z,101548.53
2024-01-21T00:52:22.389Z,101536.94
2024-01-21T00:53:19.953Z,101546.69
2024-01-21T00:54:17.480Z,101545.06
2024-01-21T00:55:14.735Z,101545.78
2024-01-21T00:56:12.028Z,101545.78
2024-01-21T00:57:10.811Z,101544.97
2024-01-21T00:58:10.317Z,101550.41
2024-01-21T00:59:07.846Z,101544.22
2024-01-21T01:00:06.112Z,101547.53
2024-01-21T01:01:03.485Z,101546.75
2024-01-21T01:02:01.079Z,101547.72
2024-01-21T01:02:58.517Z,101549.47
2024-01-21T01:03:56.563Z,101550.34
2024-01-21T01:04:54.026Z,101554.00
2024-01-21T01:05:52.209Z,101551.25
2024-01-21T01:06:49.328Z,101550.28
2024-01-21T01:07:46.953Z,101551.38
2024-01-21T01:08:44.387Z,101552.03
2024-01-21T01:09:43.616Z,101555.22
2024-01-21T01:10:41.509Z,101555.03
2024-01-21T01:11:39.452Z,101560.38
2024-01-21T01:12:37.142Z,101555.03
2024-01-21T01:13:37.841Z,101556.72
2024-01-21T01:14:35.745Z,101547.78
2024-01-21T01:15:33.260Z,101556.53
2024-01-21T01:16:31.416Z,101563.03
2024-01-21T01:17:29.114Z,101558.38
2024-01-21T01:18:26.914Z,101556.00
2024-01-21T01:19:24.856Z,101555.81
2024-01-21T01:20:22.636Z,101554.88
2024-01-21T01:21:20.239Z,101553.91
2024-01-21T01:22:17.760Z,101562.06
2024-01-21T01:23:16.203Z,101555.75
2024-01-21T01:24:13.401Z,101552.34
2024-01-21T01:25:11.450Z,101551.06
2024-01-21T01:26:09.217Z,101549.00
2024-01-21T01:27:06.594Z,101554.28
2024-01-21T01:28:04.422Z,101558.47
2024-01-21T01:29:02.581Z,101560.28
2024-01-21T01:30:00.495Z,101558.00
2024-01-21T01:30:58.745Z,101553.38
2024-01-21T01:31:56.683Z,101556.94
2024-01-21T01:32:54.214Z,101557.03
2024-01-21T01:33:52.781Z,101554.19
2024-01-21T01:34:56.832Z,101561.19
2024-01-21T01:35:54.957Z,101557.06
2024-01-21T01:36:52.758Z,101559.59
2024-01-21T01:37:51.868Z,101563.03
2024-01-21T01:38:49.472Z,101561.34
2024-01-21T01:39:47.361Z,101571.00
2024-01-21T01:40:45.457Z,101562.47
2024-01-21T01:41:43.745Z,101565.03
2024-01-21T01:42:41.740Z,101564.50
2024-01-21T01:43:39.350Z,101565.03
2024-01-21T01:44:39.915Z,101563.59
2024-01-21T01:45:39.305Z,101562.53
2024-01-21T01:46:38.657Z,101568.78
2024-01-21T01:47:36.827Z,101565.00
2024-01-21T01:48:37.812Z,101570.22
2024-01-21T01:49:35.311Z,101569.31
2024-01-21T01:50:34.235Z,101567.56
2024-01-21T01:51:34.565Z,101566.09
2024-01-21T01:52:31.993Z,101571.12
2024-01-21T01:53:30.722Z,101564.22
2024-01-21T01:54:31.186Z,101567.78
2024-01-21T01:55:29.255Z,101572.31
2024-01-21T01:56:26.937Z,101565.03
2024-01-21T01:57:25.318Z,101573.06
2024-01-21T01:58:23.451Z,101560.66
2024-01-21T01:59:22.282Z,101565.16
2024-01-21T02:00:20.323Z,101568.59
2024-01-21T02:01:18.193Z,101564.22
2024-01-21T02:02:16.224Z,101567.09
2024-01-21T02:03:14.656Z,101572.31
2024-01-21T02:04:13.532Z,101568.66
2024-01-21T02:05:11.562Z,101570.81
2024-01-21T02:06:08.819Z,101576.84
2024-01-21T02:07:06.435Z,101574.75
2024-01-21T02:08:04.271Z,101574.88
2024-01-21T02:09:01.518Z,101569.50
2024-01-21T02:09:58.754Z,101575.06
2024-01-21T02:10:56.373Z,101578.75
2024-01-21T02:11:53.750Z,101570.06
2024-01-21T02:12:52.978Z,101578.87
2024-01-21T02:13:53.391Z,101581.19
2024-01-21T02:14:51.661Z,101573.28
2024-01-21T02:15:49.209Z,101571.59
2024-01-21T02:16:46.797Z,101574.34
2024-01-21T02:17:44.273Z,101573.28
2024-01-21T02:18:48.019Z,101576.88
2024-01-21T02:19:46.032Z,101568.22
2024-01-21T02:20:43.472Z,101569.97
2024-01-21T02:21:41.349Z,101569.81
2024-01-21T02:22:42.826Z,101577.06
2024-01-21T02:23:40.695Z,101565.44
2024-01-21T02:24:38.849Z,101570.75
2024-01-21T02:25:36.732Z,101571.16
2024-01-21T02:26:34.929Z,101569.00
2024-01-21T02:27:32.478Z,101569.84
2024-01-21T02:28:30.164Z,101566.50
2024-01-21T02:29:27.827Z,101561.09
2024-01-21T02:30:26.928Z,101555.72
2024-01-21T02:31:26.142Z,101572.53
2024-01-21T02:32:24.083Z,101568.87
2024-01-21T02:33:22.151Z,101560.84
2024-01-21T02:34:26.776Z,101563.53
2024-01-21T02:35:24.593Z,101567.19
2024-01-21T02:36:22.375Z,101566.09
2024-01-21T02:37:19.915Z,101567.31
2024-01-21T02:38:17.265Z,101561.78
2024-01-21T02:39:14.685Z,101566.97
2024-01-21T02:40:12.469Z,101567.31
2024-01-21T02:41:10.004Z,101572.25
2024-01-21T02:42:08.212Z,101568.06
2024-01-21T02:43:08.586Z,101564.50
2024-01-21T02:44:06.999Z,101569.59
2024-01-21T02:45:05.150Z,101567.12
2024-01-21T02:46:04.358Z,101564.31
2024-01-21T02:47:01.660Z,101574.22
2024-01-21T02:47:59.191Z,101573.91
2024-01-21T02:48:56.603Z,101575.00
2024-01-21T02:49:54.159Z,101575.69
2024-01-21T02:50:51.550Z,101573.44
2024-01-21T02:51:49.056Z,101575.69
2024-01-21T02:52:46.714Z,101574.97
2024-01-21T02:53:44.292Z,101570.06
2024-01-21T02:54:41.774Z,101572.34
2024-01-21T02:55:40.372Z,101574.12
2024-01-21T02:56:37.701Z,101576.75
2024-01-21T02:57:35.026Z,101580.22
2024-01-21T02:58:32.227Z,101576.88
2024-01-21T02:59:29.946Z,101578.59
2024-01-21T03:00:28.718Z,101569.94
2024-01-21T03:01:26.348Z,101571.72
2024-01-21T03:02:24.064Z,101572.37
2024-01-21T03:03:21.409Z,101577.03
2024-01-21T03:04:18.545Z,101582.09
2024-01-21T03:05:15.896Z,101573.53
2024-01-21T03:06:13.809Z,101575.94
2024-01-21T03:07:11.107Z,101582.31
2024-01-21T03:08:08.176Z,101575.06
2024-01-21T03:09:05.392Z,101578.66
2024-01-21T03:10:02.549Z,101575.00
2024-01-21T03:10:59.825Z,101575.22
2024-01-21T03:11:57.895Z,101578.56
2024-01-21T03:12:55.292Z,101573.44
2024-01-21T03:13:52.601Z,101576.06
2024-01-21T03:14:49.695Z,101577.97
2024-01-21T03:15:47.058Z,101565.78
2024-01-21T03:16:44.245Z,101574.56
2024-01-21T03:17:41.234Z,101579.59
2024-01-21T03:18:40.518Z,101569.91
2024-01-21T03:19:37.912Z,101576.97
2024-01-21T03:20:35.154Z,101585.59
2024-01-21T03:21:32.349Z,101578.19
2024-01-21T03:22:29.908Z,101586.97
2024-01-21T03:23:27.180Z,101581.09
2024-01-21T03:24:24.477Z,101580.00
2024-01-21T03:25:21.805Z,101581.50
2024-01-21T03:26:18.940Z,101586.06
2024-01-21T03:27:16.020Z,101583.59
2024-01-21T03:28:14.676Z,101580.88
2024-01-21T03:29:11.900Z,101578.12
2024-01-21T03:30:09.578Z,101580.75
2024-01-21T03:31:06.905Z,101577.41
2024-01-21T03:32:05.378Z,101583.22
2024-01-21T03:33:02.824Z,101574.44
2024-01-21T03:34:00.619Z,101581.50
2024-01-21T03:34:57.911Z,101583.38
2024-01-21T03:35:55.395Z,101578.75
2024-01-21T03:36:52.699Z,101579.59
2024-01-21T03:37:51.479Z,101585.84
2024-01-21T03:38:52.201Z,101582.25
2024-01-21T03:39:49.446Z,101581.53
2024-01-21T03:40:46.914Z,101579.66
2024-01-21T03:41:44.136Z,101579.66
2024-01-21T03:42:41.412Z,101580.56
2024-01-21T03:43:38.604Z,101579.63
2024-01-21T03:44:35.944Z,101574.84
2024-01-21T03:45:33.480Z,101573.84
2024-01-21T03:46:30.634Z,101579.34
2024-01-21T03:47:27.980Z,101574.59
2024-01-21T03:48:25.257Z,101571.91
2024-01-21T03:49:22.736Z,101564.19
2024-01-21T03:50:21.886Z,101568.75
2024-01-21T03:51:19.386Z,101568.63
2024-01-21T03:52:16.576Z,101565.34
2024-01-21T03:53:13.871Z,101567.78
2024-01-21T03:54:11.095Z,101566.63
2024-01-21T03:55:08.606Z,101569.13
2024-01-21T03:56:07.041Z,101572.87
2024-01-21T03:57:04.560Z,101566.47
2024-01-21T03:58:02.080Z,101578.75
2024-01-21T03:58:59.442Z,101570.88
2024-01-21T03:59:56.703Z,101569.47
2024-01-21T04:00:54.154Z,101569.47
2024-01-21T04:01:51.543Z,101576.37
2024-01-21T04:02:48.711Z,101572.25
2024-01-21T04:03:46.042Z,101571.12
2024-01-21T04:04:46.547Z,101572.00
2024-01-21T04:05:43.913Z,101571.09
2024-01-21T04:06:44.925Z,101572.91
2024-01-21T04:07:42.274Z,101579.34
2024-01-21T04:08:39.503Z,101565.06
2024-01-21T04:09:36.618Z,101571.34
2024-01-21T04:10:34.034Z,101569.69
2024-01-21T04:11:32.052Z,101565.87
2024-01-21T04:12:29.640Z,101563.09
2024-01-21T04:13:26.965Z,101565.03
2024-01-21T04:14:24.169Z,101566.03
2024-01-21T04:15:21.376Z,101567.53
2024-01-21T04:16:18.680Z,101570.28
2024-01-21T04:17:15.758Z,101569.25
2024-01-21T04:18:13.144Z,101567.53
2024-01-21T04:19:11.336Z,101565.03
2024-01-21T04:20:10.512Z,101573.72
2024-01-21T04:21:07.685Z,101569.41
2024-01-21T04:22:05.158Z,101570.25
2024-01-21T04:23:02.193Z,101571.28
2024-01-21T04:24:00.195Z,101560.59
2024-01-21T04:24:57.407Z,101566.00
2024-01-21T04:25:56.452Z,101558.09
2024-01-21T04:26:54.411Z,101561.81
2024-01-21T04:27:51.634Z,101568.47
2024-01-21T04:28:48.813Z,101560.47
2024-01-21T04:29:46.201Z,101560.50
2024-01-21T04:30:43.261Z,101563.13
2024-01-21T04:31:45.967Z,101564.81
2024-01-21T04:32:43.390Z,101564.00
2024-01-21T04:33:40.568Z,101561.25
2024-01-21T04:34:38.139Z,101556.16
2024-01-21T04:35:36.783Z,101560.59
2024-01-21T04:36:34.066Z,101560.72
2024-01-21T04:37:31.646Z,101561.59
2024-01-21T04:38:29.008Z,101565.78
2024-01-21T04:39:26.429Z,101562.53
2024-01-21T04:40:23.678Z,101562.72
2024-01-21T04:41:20.973Z,101563.16
2024-01-21T04:42:18.626Z,101563.94
2024-01-21T04:43:15.839Z,101556.91
2024-01-21T04:44:13.002Z,101563.47
2024-01-21T04:45:12.060Z,101559.66
2024-01-21T04:46:09.592Z,101564.00
2024-01-21T04:47:06.721Z,101566.94
2024-01-21T04:48:04.964Z,101565.84
2024-01-21T04:49:02.323Z,101565.66
2024-01-21T04:49:59.659Z,101575.28
2024-01-21T04:50:56.900Z,101573.63
2024-01-21T04:51:54.251Z,101574.66
2024-01-21T04:52:51.600Z,101573.66
2024-01-21T04:53:48.676Z,101580.97
2024-01-21T04:54:45.850Z,101580.00
2024-01-21T04:55:43.000Z,101575.56
2024-01-21T04:56:40.608Z,101579.16
2024-01-21T04:57:38.244Z,101580.69
2024-01-21T04:58:35.399Z,101577.84
2024-01-21T04:59:32.722Z,101570.09
2024-01-21T05:00:29.901Z,101577.72
2024-01-21T05:01:28.493Z,101569.91
2024-01-21T05:02:25.654Z,101580.69
2024-01-21T05:03:23.185Z,101573.53
2024-01-21T05:04:20.637Z,101570.16
2024-01-21T05:05:17.900Z,101580.81
2024-01-21T05:06:15.099Z,101580.69
2024-01-21T05:07:12.413Z,101578.91
2024-01-21T05:08:09.624Z,101585.09
2024-01-21T05:09:06.970Z,101588.03
2024-01-21T05:10:04.486Z,101581.66
2024-01-21T05:11:01.702Z,101582.53
2024-01-21T05:11:59.331Z,101582.69
2024-01-21T05:12:56.572Z,101585.22
2024-01-21T05:13:53.738Z,101589.53
2024-01-21T05:14:51.366Z,101588.88
2024-01-21T05:15:48.817Z,101586.06
2024-01-21T05:16:45.977Z,101603.00
2024-01-21T05:17:43.298Z,101594.88
2024-01-21T05:18:41.129Z,101602.09
2024-01-21T05:19:38.925Z,101594.25
2024-01-21T05:20:36.232Z,101601.03
2024-01-21T05:21:33.680Z,101603.56
2024-01-21T05:22:31.109Z,101599.25
2024-01-21T05:23:28.272Z,101586.88
2024-01-21T05:24:25.416Z,101603.09
2024-01-21T05:25:22.479Z,101602.34
2024-01-21T05:26:19.940Z,101598.78
2024-01-21T05:27:17.564Z,101603.19
2024-01-21T05:28:14.884Z,101593.16
2024-01-21T05:29:12.946Z,101594.78
2024-01-21T05:30:10.206Z,101598.38
2024-01-21T05:31:08.032Z,101601.00
2024-01-21T05:32:05.738Z,101607.97
2024-01-21T05:33:03.053Z,101611.97
2024-01-21T05:34:00.680Z,101616.06
2024-01-21T05:34:57.911Z,101608.09
2024-01-21T05:35:54.944Z,101607.38
2024-01-21T05:36:52.533Z,101604.84
2024-01-21T05:37:50.411Z,101603.81
2024-01-21T05:38:47.764Z,101609.22
2024-01-21T05:39:45.001Z,101607.47
2024-01-21T05:40:42.212Z,101609.28
2024-01-21T05:41:39.369Z,101612.66
2024-01-21T05:42:36.626Z,101608.28
2024-01-21T05:43:33.748Z,101613.63
2024-01-21T05:44:31.091Z,101612.84
2024-01-21T05:45:28.835Z,101610.03
2024-01-21T05:46:26.088Z,101617.44
2024-01-21T05:47:23.199Z,101617.22
2024-01-21T05:48:20.497Z,101612.16
2024-01-21T05:49:17.894Z,101610.03
2024-01-21T05:50:15.196Z,101610.81
2024-01-21T05:51:12.407Z,101614.59
2024-01-21T05:52:09.549Z,101611.12
2024-01-21T05:53:08.178Z,101605.78
2024-01-21T05:54:05.452Z,101599.00
2024-01-21T05:55:02.648Z,101604.16
2024-01-21T05:55:59.983Z,101597.00
2024-01-21T05:56:57.190Z,101605.16
2024-01-21T05:57:54.402Z,101605.19
2024-01-21T05:58:51.822Z,101602.44
2024-01-21T05:59:51.325Z,101608.38
2024-01-21T06:00:48.667Z,101605.78
2024-01-21T06:01:49.314Z,101608.34
2024-01-21T06:02:46.847Z,101615.72
2024-01-21T06:03:44.180Z,101616.31
2024-01-21T06:04:41.931Z,101613.88
2024-01-21T06:05:38.916Z,101611.34
2024-01-21T06:06:36.084Z,101613.69
2024-01-21T06:07:33.184Z,101608.34
2024-01-21T06:08:30.435Z,101611.16
2024-01-21T06:09:27.603Z,101604.84
2024-01-21T06:10:24.719Z,101601.28
2024-01-21T06:11:21.875Z,101602.13
2024-01-21T06:12:19.069Z,101607.50
2024-01-21T06:13:16.127Z,101608.62
2024-01-21T06:14:13.448Z,101608.44
2024-01-21T06:15:11.515Z,101606.66
2024-01-21T06:16:09.118Z,101611.00
2024-01-21T06:17:06.359Z,101610.09
2024-01-21T06:18:04.238Z,101615.44
2024-01-21T06:19:01.690Z,101606.75
2024-01-21T06:19:59.251Z,101611.03
2024-01-21T06:20:56.530Z,101608.34
2024-01-21T06:21:53.742Z,101610.44
2024-01-21T06:22:50.900Z,101614.97
2024-01-21T06:23:48.203Z,101610.47
2024-01-21T06:24:45.419Z,101615.69
2024-01-21T06:25:42.524Z,101620.91
2024-01-21T06:26:41.998Z,101615.53
2024-01-21T06:27:39.303Z,101615.72
2024-01-21T06:28:36.382Z,101615.56
2024-01-21T06:29:33.623Z,101609.44
2024-01-21T06:30:31.245Z,101606.63
2024-01-21T06:31:28.463Z,101611.03
2024-01-21T06:32:25.656Z,101609.22
2024-01-21T06:33:23.082Z,101612.81
2024-01-21T06:34:20.366Z,101614.69
2024-01-21T06:35:17.647Z,101619.75
2024-01-21T06:36:15.239Z,101610.91
2024-01-21T06:37:12.539Z,101614.72
2024-01-21T06:38:09.727Z,101611.06
2024-01-21T06:39:08.613Z,101611.97
2024-01-21T06:40:07.159Z,101609.25
2024-01-21T06:41:04.479Z,101598.75
2024-01-21T06:42:03.120Z,101598.72
2024-01-21T06:43:00.305Z,101604.94
2024-01-21T06:43:57.549Z,101603.09
2024-01-21T06:44:54.660Z,101599.09
2024-01-21T06:45:51.715Z,101606.13
2024-01-21T06:46:48.988Z,101605.75
2024-01-21T06:47:46.275Z,101607.66
2024-01-21T06:48:43.757Z,101602.31
2024-01-21T06:49:41.195Z,101604.75
2024-01-21T06:50:38.759Z,101606.44
2024-01-21T06:51:44.793Z,101602.22
2024-01-21T06:52:42.350Z,101601.47
2024-01-21T06:53:39.643Z,101597.88
2024-01-21T06:54:36.816Z,101596.06
2024-01-21T06:55:34.331Z,101591.62
2024-01-21T06:56:31.565Z,101597.84
2024-01-21T06:57:28.812Z,101595.19
2024-01-21T06:58:25.859Z,101593.50
2024-01-21T06:59:22.927Z,101592.44
2024-01-21T07:00:20.673Z,101590.66
2024-01-21T07:01:19.582Z,101598.47
2024-01-21T07:02:16.919Z,101607.34
2024-01-21T07:04:11.738Z,101613.50
2024-01-21T07:05:09.913Z,101595.87
2024-01-21T07:06:10.563Z,101591.47
2024-01-21T07:07:07.818Z,101601.22
2024-01-21T07:08:05.411Z,101602.94
2024-01-21T07:09:02.688Z,101604.75
2024-01-21T07:09:59.900Z,101600.03
2024-01-21T07:10:56.927Z,101600.00
2024-01-21T07:11:53.926Z,101601.72
2024-01-21T07:12:52.246Z,101599.81
2024-01-21T07:13:49.581Z,101597.28
2024-01-21T07:14:46.869Z,101604.41
2024-01-21T07:15:44.189Z,101604.66
2024-01-21T07:16:41.468Z,101611.44
2024-01-21T07:17:40.553Z,101605.47
2024-01-21T07:18:38.210Z,101613.25
2024-01-21T07:19:36.030Z,101606.97
2024-01-21T07:20:33.771Z,101604.94
2024-01-21T07:21:31.923Z,101608.50
2024-01-21T07:22:29.092Z,101607.69
2024-01-21T07:23:26.465Z,101608.31
2024-01-21T07:24:23.746Z,101614.47
2024-01-21T07:25:20.899Z,101609.31
2024-01-21T07:26:19.528Z,101618.31
2024-01-21T07:27:16.909Z,101614.91
2024-01-21T07:28:14.066Z,101614.47
2024-01-21T07:29:11.173Z,101616.28
2024-01-21T07:30:08.818Z,101608.47
2024-01-21T07:31:06.084Z,101608.72
2024-01-21T07:32:03.813Z,101607.44
2024-01-21T07:33:03.318Z,101606.47
2024-01-21T07:34:01.122Z,101609.81
2024-01-21T07:34:58.822Z,101609.53
2024-01-21T07:35:56.123Z,101612.31
2024-01-21T07:36:53.513Z,101612.22
2024-01-21T07:37:50.646Z,101605.03
2024-01-21T07:38:47.783Z,101609.50
2024-01-21T07:39:45.062Z,101606.00
2024-01-21T07:40:42.634Z,101605.88
2024-01-21T07:41:39.905Z,101610.31
2024-01-21T07:42:37.028Z,101603.22
2024-01-21T07:43:35.757Z,101607.59
2024-01-21T07:44:36.175Z,101606.84
2024-01-21T07:45:39.406Z,101602.34
2024-01-21T07:46:38.253Z,101603.06
2024-01-21T07:47:40.303Z,101601.31
2024-01-21T07:48:42.056Z,101599.41
2024-01-21T07:49:45.120Z,101595.75
2024-01-21T07:52:39.444Z,101593.66
2024-01-21T07:53:36.914Z,101594.75
2024-01-21T07:54:33.965Z,101600.75
2024-01-21T07:55:31.593Z,101595.50
2024-01-21T07:56:28.817Z,101600.06
2024-01-21T07:57:26.129Z,101602.63
2024-01-21T07:58:23.384Z,101599.81
2024-01-21T07:59:20.785Z,101601.53
2024-01-21T08:00:19.320Z,101605.81
2024-01-21T08:01:18.839Z,101604.81
2024-01-21T08:02:16.450Z,101602.13
2024-01-21T08:03:14.202Z,101607.84
2024-01-21T08:04:11.683Z,101611.47
2024-01-21T08:05:10.333Z,101610.63
2024-01-21T08:06:11.406Z,101614.03
2024-01-21T08:07:09.989Z,101610.38
2024-01-21T08:08:07.541Z,101610.47
2024-01-21T08:09:05.219Z,101609.59
2024-01-21T08:10:02.646Z,101604.38
2024-01-21T08:10:59.948Z,101614.91
2024-01-21T08:11:57.545Z,101617.53
2024-01-21T08:12:54.796Z,101619.16
2024-01-21T08:13:52.245Z,101617.91
2024-01-21T08:14:49.438Z,101619.56
2024-01-21T08:15:46.754Z,101617.84
2024-01-21T08:16:43.973Z,101615.22
2024-01-21T08:17:41.482Z,101614.28
2024-01-21T08:18:39.168Z,101621.28
2024-01-21T08:19:40.060Z,101622.06
2024-01-21T08:20:37.421Z,101615.75
2024-01-21T08:21:34.759Z,101610.34
2024-01-21T08:22:32.157Z,101612.91
2024-01-21T08:23:29.616Z,101616.59
2024-01-21T08:24:27.271Z,101608.66
2024-01-21T08:25:24.637Z,101606.72
2024-01-21T08:26:22.052Z,101607.72
2024-01-21T08:27:20.327Z,101609.56
2024-01-21T08:28:17.557Z,101609.56
2024-01-21T08:29:14.924Z,101612.19
2024-01-21T08:30:13.465Z,101620.09
2024-01-21T08:31:11.209Z,101614.69
2024-01-21T08:32:09.201Z,101601.97
2024-01-21T08:33:06.703Z,101604.03
2024-01-21T08:34:04.235Z,101604.53
2024-01-21T08:35:01.897Z,101601.06
2024-01-21T08:35:59.725Z,101604.62
2024-01-21T08:36:57.046Z,101607.31
2024-01-21T08:37:54.571Z,101608.09
2024-01-21T08:38:52.805Z,101606.13
2024-01-21T08:39:50.167Z,101613.94
2024-01-21T08:40:47.669Z,101617.47
2024-01-21T08:41:44.943Z,101620.03
2024-01-21T08:42:42.804Z,101615.53
2024-01-21T08:43:40.135Z,101609.31
2024-01-21T08:44:37.318Z,101615.31
2024-01-21T08:45:34.547Z,101617.88
2024-01-21T08:46:31.964Z,101608.16
2024-01-21T08:47:29.112Z,101611.56
2024-01-21T08:48:26.584Z,101613.06
2024-01-21T08:49:24.337Z,101619.03
2024-01-21T08:50:21.512Z,101624.13
2024-01-21T08:51:19.996Z,101620.56
2024-01-21T08:52:17.967Z,101620.25
2024-01-21T08:53:15.212Z,101621.06
2024-01-21T08:54:12.598Z,101623.53
2024-01-21T08:55:10.394Z,101623.31
2024-01-21T08:56:07.825Z,101619.66
2024-01-21T08:57:05.238Z,101624.81
2024-01-21T08:58:03.629Z,101623.84
2024-01-21T08:59:01.122Z,101628.47
2024-01-21T08:59:58.499Z,101625.06
2024-01-21T09:00:55.809Z,101629.28
2024-01-21T09:01:53.349Z,101626.66
2024-01-21T09:02:50.569Z,101617.34
2024-01-21T09:03:47.893Z,101625.06
2024-01-21T09:04:45.186Z,101621.47
2024-01-21T09:05:43.500Z,101626.63
2024-01-21T09:06:43.473Z,101630.94
2024-01-21T09:07:40.964Z,101631.72
2024-01-21T09:08:38.216Z,101631.53
2024-01-21T09:09:36.531Z,101628.53
2024-01-21T09:10:34.017Z,101632.03
2024-01-21T09:11:31.213Z,101634.56
2024-01-21T09:12:28.356Z,101639.75
2024-01-21T09:13:25.460Z,101626.44
2024-01-21T09:14:22.558Z,101631.53
2024-01-21T09:15:23.164Z,101633.03
2024-01-21T09:16:21.023Z,101631.84
2024-01-21T09:17:18.775Z,101627.25
2024-01-21T09:18:16.234Z,101625.41
2024-01-21T09:19:14.133Z,101631.50
2024-01-21T09:20:11.750Z,101628.34
2024-01-21T09:21:15.689Z,101628.88
2024-01-21T09:22:20.318Z,101625.41
2024-01-21T09:23:17.365Z,101626.31
2024-01-21T09:24:16.002Z,101624.59
2024-01-21T09:25:13.276Z,101626.22
2024-01-21T09:26:10.430Z,101624.53
2024-01-21T09:27:07.564Z,101635.88
2024-01-21T09:28:06.865Z,101633.84
2024-01-21T09:29:04.828Z,101630.69
2024-01-21T09:30:01.953Z,101629.81
2024-01-21T09:30:59.008Z,101629.25
2024-01-21T09:31:57.289Z,101627.31
2024-01-21T09:32:54.756Z,101626.13
2024-01-21T09:33:52.421Z,101617.88
2024-01-21T09:34:49.966Z,101625.47
2024-01-21T09:35:47.494Z,101623.25
2024-01-21T09:36:45.785Z,101626.56
2024-01-21T09:37:43.170Z,101626.37
2024-01-21T09:38:40.341Z,101635.91
2024-01-21T09:39:38.784Z,101625.09
2024-01-21T09:40:36.041Z,101625.84
2024-01-21T09:41:59.616Z,101621.53
2024-01-21T09:42:56.969Z,101622.34
2024-01-21T09:43:54.341Z,101625.00
2024-01-21T09:44:51.460Z,101632.66
2024-01-21T09:45:48.823Z,101636.72
2024-01-21T09:46:55.285Z,101636.38
2024-01-21T09:47:54.455Z,101636.84
2024-01-21T09:48:54.070Z,101643.06
2024-01-21T09:49:52.447Z,101635.09
2024-01-21T09:50:50.683Z,101630.37
2024-01-21T09:51:48.698Z,101627.94
2024-01-21T09:52:45.957Z,101631.19
2024-01-21T09:53:43.119Z,101624.81
2024-01-21T09:54:40.302Z,101628.34
2024-01-21T09:55:37.399Z,101621.59
2024-01-21T09:56:36.113Z,101629.34
2024-01-21T09:57:34.394Z,101628.16
2024-01-21T09:58:33.332Z,101628.97
2024-01-21T09:59:30.802Z,101633.09
2024-01-21T10:00:28.219Z,101633.84
2024-01-21T10:01:25.515Z,101623.28
2024-01-21T10:02:24.673Z,101623.22
2024-01-21T10:03:21.932Z,101623.84
2024-01-21T10:04:21.653Z,101624.22
2024-01-21T10:05:21.068Z,101622.22
2024-01-21T10:06:19.410Z,101624.13
2024-01-21T10:07:16.878Z,101631.09
2024-01-21T10:08:15.359Z,101625.16
2024-01-21T10:09:18.065Z,101622.28
2024-01-21T10:10:16.238Z,101630.50
2024-01-21T10:11:13.390Z,101622.22
2024-01-21T10:12:10.488Z,101626.22
2024-01-21T10:13:07.807Z,101626.78
2024-01-21T10:14:04.745Z,101624.00
2024-01-21T10:15:01.955Z,101628.28
2024-01-21T10:15:59.882Z,101626.50
2024-01-21T10:16:57.236Z,101622.19
2024-01-21T10:17:54.388Z,101619.59
2024-01-21T10:18:51.481Z,101623.94
2024-01-21T10:19:48.599Z,101618.19
2024-01-21T10:20:45.785Z,101618.44
2024-01-21T10:21:43.506Z,101616.13
2024-01-21T10:22:43.161Z,101618.25
2024-01-21T10:23:40.282Z,101619.25
2024-01-21T10:24:45.354Z,101620.97
2024-01-21T10:25:45.054Z,101615.06
2024-01-21T10:26:47.793Z,101615.34
2024-01-21T10:27:53.848Z,101614.03
2024-01-21T10:28:51.025Z,101611.94
2024-01-21T10:29:48.138Z,101609.00
2024-01-21T10:30:49.236Z,101611.00
2024-01-21T10:31:46.419Z,101605.47
2024-01-21T10:32:44.518Z,101606.31
2024-01-21T10:33:46.292Z,101609.28
2024-01-21T10:34:46.772Z,101611.56
2024-01-21T10:35:44.164Z,101617.44
2024-01-21T10:36:45.066Z,101618.09
2024-01-21T10:37:42.636Z,101620.25
2024-01-21T10:38:50.534Z,101622.69
2024-01-21T10:39:49.903Z,101616.59
2024-01-21T10:40:47.768Z,101616.66
2024-01-21T10:41:45.204Z,101618.06
2024-01-21T10:42:42.867Z,101613.06
2024-01-21T10:43:41.653Z,101620.81
2024-01-21T10:44:40.813Z,101620.03
2024-01-21T10:45:37.929Z,101617.75
2024-01-21T10:46:39.202Z,101614.31
2024-01-21T10:47:36.930Z,101612.44
2024-01-21T10:48:34.640Z,101615.88
2024-01-21T10:49:33.155Z,101616.50
2024-01-21T10:50:30.332Z,101613.84
2024-01-21T10:51:28.797Z,101620.63
2024-01-21T10:52:26.208Z,101614.16
2024-01-21T10:53:25.263Z,101617.59
2024-01-21T10:54:22.526Z,101617.03
2024-01-21T10:55:19.767Z,101612.50
2024-01-21T10:56:17.016Z,101608.66
2024-01-21T10:57:15.256Z,101599.91
2024-01-21T10:58:12.861Z,101610.22
2024-01-21T10:59:10.970Z,101608.91
2024-01-21T11:00:10.819Z,101603.66
2024-01-21T11:01:08.420Z,101608.03
2024-01-21T11:02:06.319Z,101606.66
2024-01-21T11:03:25.961Z,101611.22
2024-01-21T11:04:23.599Z,101602.91